createdAt,value
2023-01-07T00:00:23.147Z,93.90
2023-01-07T00:02:28.155Z,93.90
2023-01-07T00:04:33.144Z,94.10
2023-01-07T00:06:42.118Z,94.30
2023-01-07T00:08:49.366Z,94.30
2023-01-07T00:10:54.484Z,94.30
2023-01-07T00:13:01.976Z,94.20
2023-01-07T00:15:07.996Z,94.20
2023-01-07T00:17:12.844Z,94.10
2023-01-07T00:19:21.734Z,94.10
2023-01-07T00:21:28.969Z,94.10
2023-01-07T00:23:35.915Z,94.10
2023-01-07T00:25:40.754Z,94.10
2023-01-07T00:27:45.583Z,94.10
2023-01-07T00:29:53.018Z,94.10
2023-01-07T00:31:57.907Z,94.10
2023-01-07T00:34:09.703Z,93.90
2023-01-07T00:36:14.755Z,93.90
2023-01-07T00:38:19.738Z,93.80
2023-01-07T00:40:25.262Z,93.80
2023-01-07T00:42:42.655Z,93.80
2023-01-07T00:44:47.525Z,93.80
2023-01-07T00:46:54.996Z,93.80
2023-01-07T00:49:01.481Z,93.80
2023-01-07T00:51:06.454Z,93.90
2023-01-07T00:53:13.771Z,93.90
2023-01-07T00:55:19.032Z,93.80
2023-01-07T00:57:24.153Z,93.90
2023-01-07T00:59:29.051Z,93.80
2023-01-07T01:01:34.015Z,93.70
2023-01-07T01:03:43.856Z,93.70
2023-01-07T01:05:49.009Z,93.60
2023-01-07T01:07:54.240Z,93.60
2023-01-07T01:10:00.164Z,93.60
2023-01-07T01:12:05.114Z,93.70
2023-01-07T01:14:09.981Z,93.80
2023-01-07T01:16:19.093Z,93.50
2023-01-07T01:18:23.971Z,93.70
2023-01-07T01:20:32.528Z,93.70
2023-01-07T01:22:37.899Z,93.60
2023-01-07T01:24:43.144Z,93.90
2023-01-07T01:26:48.033Z,93.80
2023-01-07T01:28:53.206Z,93.90
2023-01-07T01:31:01.881Z,94.00
2023-01-07T01:33:15.707Z,94.10
2023-01-07T01:35:20.945Z,94.00
2023-01-07T01:37:29.129Z,94.00
2023-01-07T01:39:35.894Z,94.10
2023-01-07T01:41:41.306Z,94.10
2023-01-07T01:43:48.115Z,94.10
2023-01-07T01:45:53.863Z,94.00
2023-01-07T01:48:06.272Z,94.10
2023-01-07T01:50:18.972Z,94.20
2023-01-07T01:52:36.546Z,94.20
2023-01-07T01:54:42.502Z,94.20
2023-01-07T01:56:51.255Z,94.20
2023-01-07T01:59:00.967Z,94.10
2023-01-07T02:01:06.461Z,94.10
2023-01-07T02:03:17.894Z,94.10
2023-01-07T02:05:23.091Z,94.20
2023-01-07T02:07:31.393Z,94.20
2023-01-07T02:09:37.033Z,94.30
2023-01-07T02:11:54.457Z,94.40
2023-01-07T02:14:27.680Z,94.40
2023-01-07T02:16:43.048Z,94.50
2023-01-07T02:19:20.737Z,94.50
2023-01-07T02:21:41.442Z,94.50
2023-01-07T02:24:38.638Z,94.60
2023-01-07T02:27:13.669Z,94.60
2023-01-07T02:30:15.390Z,94.60
2023-01-07T02:32:48.939Z,94.70
2023-01-07T02:35:08.344Z,94.70
2023-01-07T02:37:20.003Z,94.70
2023-01-07T02:39:47.217Z,94.60
2023-01-07T02:42:00.439Z,94.50
2023-01-07T02:44:17.975Z,94.40
2023-01-07T02:46:30.829Z,94.40
2023-01-07T02:48:39.315Z,94.30
2023-01-07T02:50:44.197Z,94.20
2023-01-07T02:52:50.336Z,94.20
2023-01-07T02:55:01.354Z,94.20
2023-01-07T02:57:52.343Z,94.20
2023-01-07T03:00:17.595Z,94.10
2023-01-07T03:02:53.489Z,94.10
2023-01-07T03:05:44.082Z,93.90
2023-01-07T03:08:07.704Z,94.10
2023-01-07T03:10:24.313Z,94.20
2023-01-07T03:12:36.364Z,94.00
2023-01-07T03:14:49.220Z,94.20
2023-01-07T03:17:00.140Z,94.20
2023-01-07T03:19:10.372Z,94.00
2023-01-07T03:21:21.616Z,93.90
2023-01-07T03:23:32.436Z,93.90
2023-01-07T03:25:43.099Z,93.90
2023-01-07T03:27:50.967Z,94.00
2023-01-07T03:29:56.735Z,94.20
2023-01-07T03:32:08.633Z,94.20
2023-01-07T03:34:18.641Z,94.10
2023-01-07T03:36:37.246Z,94.00
2023-01-07T03:38:46.088Z,94.20
2023-01-07T03:40:52.212Z,94.10
2023-01-07T03:42:55.262Z,94.10
2023-01-07T03:45:02.753Z,94.00
2023-01-07T03:47:11.276Z,94.00
2023-01-07T03:49:16.336Z,94.00
2023-01-07T03:51:21.186Z,94.00
2023-01-07T03:53:29.650Z,94.00
2023-01-07T03:55:34.764Z,94.00
2023-01-07T03:57:40.611Z,94.10
2023-01-07T03:59:45.490Z,94.10
2023-01-07T04:01:50.773Z,94.10
2023-01-07T04:03:55.822Z,94.20
2023-01-07T04:06:00.960Z,94.10
2023-01-07T04:08:07.499Z,94.30
2023-01-07T04:10:17.965Z,94.20
2023-01-07T04:12:22.957Z,94.20
2023-01-07T04:14:28.115Z,94.20
2023-01-07T04:16:33.093Z,94.20
2023-01-07T04:18:38.792Z,94.20
2023-01-07T04:20:47.704Z,94.20
2023-01-07T04:22:53.636Z,94.30
2023-01-07T04:24:58.859Z,94.30
2023-01-07T04:27:07.545Z,94.20
2023-01-07T04:29:13.953Z,94.30
2023-01-07T04:31:19.251Z,94.20
2023-01-07T04:33:24.149Z,94.30
2023-01-07T04:35:29.431Z,94.20
2023-01-07T04:37:34.724Z,94.30
2023-01-07T04:39:40.147Z,94.10
2023-01-07T04:41:45.266Z,94.20
2023-01-07T04:43:53.402Z,94.10
2023-01-07T04:45:59.167Z,94.10
2023-01-07T04:48:04.231Z,94.10
2023-01-07T04:50:11.229Z,94.10
2023-01-07T04:52:16.659Z,94.10
2023-01-07T04:54:21.969Z,94.00
2023-01-07T04:56:27.361Z,93.90
2023-01-07T04:58:33.360Z,94.00
2023-01-07T05:00:41.165Z,94.10
2023-01-07T05:02:46.350Z,94.10
2023-01-07T05:04:51.677Z,94.20
2023-01-07T05:06:58.787Z,94.20
2023-01-07T05:09:05.333Z,94.10
2023-01-07T05:11:11.582Z,94.20
2023-01-07T05:13:24.076Z,94.20
2023-01-07T05:15:29.801Z,94.10
2023-01-07T05:17:37.308Z,94.10
2023-01-07T05:19:43.166Z,94.00
2023-01-07T05:21:50.478Z,94.00
2023-01-07T05:23:56.282Z,94.00
2023-01-07T05:26:01.271Z,94.10
2023-01-07T05:28:08.649Z,94.10
2023-01-07T05:30:16.255Z,94.10
2023-01-07T05:32:22.920Z,94.10
2023-01-07T05:34:31.472Z,94.10
2023-01-07T05:36:36.890Z,94.10
2023-01-07T05:38:43.653Z,94.10
2023-01-07T05:40:51.544Z,94.20
2023-01-07T05:43:00.769Z,94.20
2023-01-07T05:45:07.986Z,94.20
2023-01-07T05:47:12.971Z,94.10
2023-01-07T05:49:18.310Z,94.10
2023-01-07T05:51:25.992Z,94.10
2023-01-07T05:53:31.483Z,94.10
2023-01-07T05:55:39.167Z,94.20
2023-01-07T05:57:44.110Z,94.10
2023-01-07T05:59:49.445Z,94.00
2023-01-07T06:01:55.371Z,94.10
2023-01-07T06:04:00.572Z,94.00
2023-01-07T06:06:07.434Z,94.20
2023-01-07T06:08:16.248Z,94.40
2023-01-07T06:10:21.404Z,94.30
2023-01-07T06:12:26.316Z,94.50
2023-01-07T06:14:31.410Z,94.50
2023-01-07T06:16:36.340Z,94.50
2023-01-07T06:18:41.788Z,94.50
2023-01-07T06:20:47.133Z,94.60
2023-01-07T06:22:52.844Z,94.60
2023-01-07T06:25:00.535Z,94.70
2023-01-07T06:27:05.541Z,94.60
2023-01-07T06:29:10.530Z,94.80
2023-01-07T06:31:15.535Z,94.80
2023-01-07T06:33:21.375Z,94.80
2023-01-07T06:35:26.318Z,94.60
2023-01-07T06:37:31.319Z,94.60
2023-01-07T06:39:39.938Z,94.70
2023-01-07T06:41:47.454Z,95.00
2023-01-07T06:43:52.496Z,95.10
2023-01-07T06:45:57.651Z,95.00
2023-01-07T06:48:02.602Z,95.20
2023-01-07T06:50:08.629Z,95.20
2023-01-07T06:52:13.581Z,95.30
2023-01-07T06:54:18.683Z,95.30
2023-01-07T06:56:23.691Z,95.30
2023-01-07T06:58:31.627Z,95.20
2023-01-07T07:00:36.549Z,95.30
2023-01-07T07:02:41.519Z,95.20
2023-01-07T07:04:46.510Z,95.00
2023-01-07T07:06:51.433Z,95.10
2023-01-07T07:08:56.394Z,94.90
2023-01-07T07:11:01.616Z,94.90
2023-01-07T07:13:06.598Z,94.70
2023-01-07T07:15:15.184Z,94.70
2023-01-07T07:17:20.099Z,94.90
2023-01-07T07:19:25.827Z,95.00
2023-01-07T07:21:31.097Z,95.20
2023-01-07T07:23:36.049Z,95.10
2023-01-07T07:25:41.027Z,94.90
2023-01-07T07:27:48.788Z,95.10
2023-01-07T07:29:54.097Z,95.20
2023-01-07T07:32:01.680Z,95.30
2023-01-07T07:34:07.503Z,95.00
2023-01-07T07:36:13.185Z,95.10
2023-01-07T07:38:19.236Z,95.20
2023-01-07T07:40:25.238Z,95.10
2023-01-07T07:42:30.174Z,95.00
2023-01-07T07:44:35.331Z,94.90
2023-01-07T07:46:41.451Z,94.80
2023-01-07T07:48:51.680Z,94.80
2023-01-07T07:50:57.212Z,94.70
2023-01-07T07:53:02.587Z,94.70
2023-01-07T07:55:20.675Z,94.70
2023-01-07T07:57:31.813Z,94.70
2023-01-07T07:59:36.903Z,94.70
2023-01-07T08:01:42.723Z,94.50
2023-01-07T08:03:50.838Z,94.50
2023-01-07T08:05:55.887Z,94.50
2023-01-07T08:08:01.558Z,94.50
2023-01-07T08:10:08.802Z,94.40
2023-01-07T08:12:13.927Z,94.30
2023-01-07T08:14:18.872Z,94.20
2023-01-07T08:16:24.026Z,94.20
2023-01-07T08:18:29.783Z,94.10
2023-01-07T08:20:39.288Z,94.20
2023-01-07T08:22:44.295Z,94.30
2023-01-07T08:24:49.240Z,94.40
2023-01-07T08:26:55.789Z,94.60
2023-01-07T08:29:00.720Z,94.60
2023-01-07T08:31:06.600Z,94.60
2023-01-07T08:33:11.917Z,94.40
2023-01-07T08:35:17.191Z,94.30
2023-01-07T08:37:24.736Z,94.30
2023-01-07T08:39:30.724Z,94.50
2023-01-07T08:41:35.644Z,94.50
2023-01-07T08:43:41.948Z,94.60
2023-01-07T08:45:52.166Z,94.60
2023-01-07T08:47:58.170Z,94.70
2023-01-07T08:50:03.250Z,94.70
2023-01-07T08:52:08.881Z,94.50
2023-01-07T08:54:16.721Z,94.10
2023-01-07T08:56:22.903Z,93.60
2023-01-07T08:58:28.068Z,93.60
2023-01-07T09:00:33.254Z,93.20
2023-01-07T09:02:38.489Z,93.40
2023-01-07T09:04:43.589Z,93.10
2023-01-07T09:06:48.789Z,92.60
2023-01-07T09:08:53.707Z,92.60
2023-01-07T09:11:01.263Z,92.30
2023-01-07T09:13:06.859Z,92.00
2023-01-07T09:15:14.207Z,92.30
2023-01-07T09:17:19.223Z,92.50
2023-01-07T09:19:24.348Z,91.60
2023-01-07T09:21:29.297Z,91.40
2023-01-07T09:23:34.432Z,91.10
2023-01-07T09:25:39.739Z,90.70
2023-01-07T09:27:49.491Z,91.30
2023-01-07T09:29:54.712Z,91.30
2023-01-07T09:31:59.623Z,91.20
2023-01-07T09:34:04.580Z,91.10
2023-01-07T09:36:10.837Z,91.40
2023-01-07T09:38:22.930Z,91.50
2023-01-07T09:44:00.505Z,90.70
2023-01-07T09:46:10.922Z,90.30
2023-01-07T09:48:23.498Z,89.80
2023-01-07T09:50:45.562Z,89.70
2023-01-07T09:52:54.633Z,90.40
2023-01-07T09:55:06.117Z,90.10
2023-01-07T09:57:17.100Z,90.30
2023-01-07T09:59:24.972Z,89.70
2023-01-07T10:01:37.866Z,90.20
2023-01-07T10:03:55.951Z,90.10
2023-01-07T10:06:12.126Z,89.90
2023-01-07T10:08:32.607Z,90.00
2023-01-07T10:10:47.219Z,89.90
2023-01-07T10:12:59.960Z,89.90
2023-01-07T10:15:42.789Z,90.00
2023-01-07T10:18:10.465Z,89.50
2023-01-07T10:20:27.140Z,89.10
2023-01-07T10:22:38.598Z,88.20
2023-01-07T10:24:47.644Z,88.50
2023-01-07T10:26:58.157Z,88.80
2023-01-07T10:29:13.706Z,89.10
2023-01-07T10:31:26.695Z,88.60
2023-01-07T10:33:34.927Z,88.40
2023-01-07T10:35:50.714Z,87.90
2023-01-07T10:37:57.852Z,88.30
2023-01-07T10:40:32.952Z,88.30
2023-01-07T10:42:44.898Z,88.40
2023-01-07T10:45:37.937Z,88.80
2023-01-07T10:48:07.060Z,88.80
2023-01-07T10:50:41.935Z,88.80
2023-01-07T10:52:53.076Z,88.40
2023-01-07T10:55:23.029Z,88.60
2023-01-07T10:57:32.199Z,88.40
2023-01-07T10:59:37.257Z,88.50
2023-01-07T11:01:44.733Z,88.50
2023-01-07T11:03:56.845Z,88.40
2023-01-07T11:06:08.473Z,88.10
2023-01-07T11:08:30.093Z,88.20
2023-01-07T11:10:39.447Z,88.00
2023-01-07T11:12:50.079Z,87.70
2023-01-07T11:14:56.828Z,88.00
2023-01-07T11:17:18.336Z,86.90
2023-01-07T11:19:46.668Z,87.10
2023-01-07T11:21:52.349Z,87.30
2023-01-07T11:23:57.437Z,87.10
2023-01-07T11:28:43.810Z,87.70
2023-01-07T11:30:58.212Z,88.00
2023-01-07T11:33:07.138Z,88.10
2023-01-07T11:35:25.752Z,87.80
2023-01-07T11:37:38.453Z,88.20
2023-01-07T11:39:43.385Z,87.80
2023-01-07T11:41:57.568Z,88.10
2023-01-07T11:44:03.001Z,87.80
2023-01-07T11:46:19.777Z,87.50
2023-01-07T11:48:32.388Z,87.60
2023-01-07T11:50:42.734Z,86.90
2023-01-07T11:52:59.847Z,87.20
2023-01-07T11:55:05.668Z,86.40
2023-01-07T11:57:16.086Z,86.40
2023-01-07T11:59:31.868Z,86.40
2023-01-07T12:01:46.623Z,86.20
2023-01-07T12:04:16.665Z,86.60
2023-01-07T12:06:31.424Z,85.10
2023-01-07T12:08:36.772Z,85.80
2023-01-07T12:10:42.408Z,85.70
2023-01-07T12:12:48.054Z,85.90
2023-01-07T12:14:53.687Z,86.00
2023-01-07T12:17:08.820Z,85.40
2023-01-07T12:19:32.070Z,85.60
2023-01-07T12:21:56.584Z,84.70
2023-01-07T12:24:29.398Z,84.60
2023-01-07T12:26:43.600Z,84.20
2023-01-07T12:29:08.446Z,83.50
2023-01-07T12:31:29.613Z,83.90
2023-01-07T12:33:55.245Z,83.50
2023-01-07T12:36:05.892Z,83.70
2023-01-07T12:38:20.175Z,83.60
2023-01-07T12:40:34.953Z,83.80
2023-01-07T12:42:43.616Z,83.50
2023-01-07T12:44:54.228Z,84.40
2023-01-07T12:47:32.640Z,83.80
2023-01-07T12:49:41.575Z,83.60
2023-01-07T12:51:55.268Z,83.10
2023-01-07T12:54:07.919Z,82.80
2023-01-07T12:56:22.974Z,83.20
2023-01-07T12:58:45.437Z,83.00
2023-01-07T13:00:58.113Z,83.30
2023-01-07T13:03:18.143Z,83.70
2023-01-07T13:05:27.845Z,82.30
2023-01-07T13:07:45.176Z,83.20
2023-01-07T13:09:59.542Z,82.80
2023-01-07T13:12:41.596Z,82.10
2023-01-07T13:14:55.719Z,82.80
2023-01-07T13:17:15.883Z,82.30
2023-01-07T13:19:21.133Z,82.60
2023-01-07T13:21:26.380Z,81.70
2023-01-07T13:23:52.943Z,81.80
2023-01-07T13:26:18.572Z,82.00
2023-01-07T13:29:06.085Z,81.90
2023-01-07T13:31:34.868Z,81.80
2023-01-07T13:33:49.728Z,82.40
2023-01-07T13:36:16.767Z,82.60
2023-01-07T13:38:44.285Z,81.60
2023-01-07T13:41:11.149Z,82.40
2023-01-07T13:43:42.058Z,82.70
2023-01-07T13:45:58.550Z,82.30
2023-01-07T13:48:06.406Z,81.70
2023-01-07T13:50:36.266Z,82.00
2023-01-07T13:52:46.307Z,81.70
2023-01-07T13:55:00.516Z,81.80
2023-01-07T13:57:47.442Z,82.20
2023-01-07T13:59:55.913Z,82.50
2023-01-07T14:02:24.050Z,81.90
2023-01-07T14:04:50.155Z,81.70
2023-01-07T14:06:55.951Z,82.90
2023-01-07T14:09:17.022Z,82.30
2023-01-07T14:11:25.359Z,81.90
2023-01-07T14:13:42.159Z,81.80
2023-01-07T14:16:09.574Z,82.00
2023-01-07T14:18:52.565Z,81.80
2023-01-07T14:21:10.066Z,81.70
2023-01-07T14:23:29.262Z,81.20
2023-01-07T14:26:01.366Z,82.00
2023-01-07T14:28:27.850Z,81.80
2023-01-07T14:30:46.366Z,82.70
2023-01-07T14:33:00.180Z,81.50
2023-01-07T14:35:08.778Z,82.30
2023-01-07T14:37:19.210Z,81.70
2023-01-07T14:39:36.064Z,81.60
2023-01-07T14:42:41.870Z,82.20
2023-01-07T14:44:48.032Z,82.00
2023-01-07T14:46:55.403Z,83.40
2023-01-07T14:49:58.077Z,82.60
2023-01-07T14:52:12.065Z,82.30
2023-01-07T14:55:00.496Z,82.40
2023-01-07T14:57:20.764Z,82.90
2023-01-07T15:00:12.131Z,83.40
2023-01-07T15:03:09.850Z,83.30
2023-01-07T15:05:45.886Z,83.30
2023-01-07T15:08:18.678Z,83.40
2023-01-07T15:10:41.449Z,83.20
2023-01-07T15:13:01.374Z,83.60
2023-01-07T15:15:29.749Z,84.10
2023-01-07T15:17:35.322Z,84.30
2023-01-07T15:19:44.327Z,83.90
2023-01-07T15:22:07.249Z,84.10
2023-01-07T15:24:25.784Z,83.50
2023-01-07T15:26:40.467Z,83.80
2023-01-07T15:28:51.357Z,83.80
2023-01-07T15:31:09.374Z,83.80
2023-01-07T15:34:06.030Z,83.80
2023-01-07T15:36:16.281Z,83.70
2023-01-07T15:38:31.773Z,83.40
2023-01-07T15:40:37.942Z,83.70
2023-01-07T15:42:45.700Z,83.60
2023-01-07T15:44:54.815Z,84.30
2023-01-07T15:47:02.746Z,84.30
2023-01-07T15:49:24.285Z,84.10
2023-01-07T15:51:29.159Z,84.30
2023-01-07T15:53:34.045Z,84.40
2023-01-07T15:55:42.868Z,84.90
2023-01-07T15:57:50.136Z,84.90
2023-01-07T15:59:56.253Z,84.70
2023-01-07T16:02:22.621Z,84.10
2023-01-07T16:04:32.776Z,84.20
2023-01-07T16:06:45.575Z,84.80
2023-01-07T16:08:50.519Z,85.20
2023-01-07T16:11:04.761Z,85.10
2023-01-07T16:13:21.070Z,85.00
2023-01-07T16:15:32.349Z,84.90
2023-01-07T16:17:52.038Z,85.00
2023-01-07T16:20:21.712Z,85.00
2023-01-07T16:22:27.913Z,84.80
2023-01-07T16:24:33.018Z,84.80
2023-01-07T16:26:44.305Z,84.50
2023-01-07T16:28:52.418Z,85.20
2023-01-07T16:30:59.008Z,84.90
2023-01-07T16:33:07.743Z,85.20
2023-01-07T16:35:21.445Z,84.80
2023-01-07T16:37:27.704Z,84.90
2023-01-07T16:39:37.215Z,84.80
2023-01-07T16:41:45.641Z,84.80
2023-01-07T16:43:52.517Z,85.30
2023-01-07T16:46:26.556Z,85.80
2023-01-07T16:48:34.484Z,85.50
2023-01-07T16:50:45.278Z,84.90
2023-01-07T16:52:55.971Z,85.10
2023-01-07T16:55:01.409Z,85.30
2023-01-07T16:57:09.129Z,85.70
2023-01-07T16:59:18.158Z,85.70
2023-01-07T17:01:34.061Z,85.80
2023-01-07T17:03:51.349Z,86.20
2023-01-07T17:06:09.169Z,86.10
2023-01-07T17:08:22.338Z,86.40
2023-01-07T17:10:31.977Z,86.30
2023-01-07T17:12:41.267Z,85.90
2023-01-07T17:14:53.161Z,86.20
2023-01-07T17:17:03.169Z,85.70
2023-01-07T17:19:30.989Z,85.80
2023-01-07T17:21:42.913Z,85.60
2023-01-07T17:23:48.209Z,85.20
2023-01-07T17:25:59.754Z,85.50
2023-01-07T17:28:12.051Z,86.00
2023-01-07T17:30:20.717Z,86.60
2023-01-07T17:32:27.206Z,86.10
2023-01-07T17:34:34.767Z,85.90
2023-01-07T17:36:39.717Z,85.80
2023-01-07T17:38:44.980Z,85.90
2023-01-07T17:40:51.084Z,85.70
2023-01-07T17:43:08.472Z,85.50
2023-01-07T17:45:22.226Z,84.90
2023-01-07T17:47:27.129Z,85.20
2023-01-07T17:49:34.873Z,85.30
2023-01-07T17:51:44.223Z,85.40
2023-01-07T17:53:51.749Z,85.90
2023-01-07T17:55:56.756Z,85.70
2023-01-07T17:58:01.638Z,86.30
2023-01-07T18:00:09.286Z,85.10
2023-01-07T18:02:21.326Z,85.10
2023-01-07T18:04:26.530Z,84.30
2023-01-07T18:06:35.756Z,84.60
2023-01-07T18:08:40.818Z,84.70
2023-01-07T18:10:59.903Z,84.60
2023-01-07T18:13:04.793Z,85.30
2023-01-07T18:15:23.645Z,85.80
2023-01-07T18:17:30.070Z,85.80
2023-01-07T18:19:34.983Z,86.80
2023-01-07T18:21:42.861Z,86.20
2023-01-07T18:23:48.225Z,86.00
2023-01-07T18:25:55.133Z,85.80
2023-01-07T18:28:00.124Z,86.30
2023-01-07T18:30:05.050Z,86.20
2023-01-07T18:32:10.429Z,86.50
2023-01-07T18:34:18.345Z,87.10
2023-01-07T18:36:23.548Z,87.60
2023-01-07T18:38:31.500Z,88.20
2023-01-07T18:40:37.163Z,88.20
2023-01-07T18:42:42.138Z,88.70
2023-01-07T18:44:47.040Z,88.20
2023-01-07T18:46:52.354Z,88.60
2023-01-07T18:48:58.021Z,88.60
2023-01-07T18:51:02.968Z,89.00
2023-01-07T18:53:07.917Z,89.10
2023-01-07T18:55:17.757Z,88.60
2023-01-07T18:57:22.849Z,89.60
2023-01-07T18:59:27.991Z,89.70
2023-01-07T19:01:33.545Z,89.90
2023-01-07T19:03:39.642Z,89.00
2023-01-07T19:05:44.928Z,89.10
2023-01-07T19:07:50.526Z,89.10
2023-01-07T19:09:55.781Z,89.30
2023-01-07T19:12:03.328Z,89.60
2023-01-07T19:14:08.212Z,89.40
2023-01-07T19:16:15.640Z,89.40
2023-01-07T19:18:20.570Z,89.70
2023-01-07T19:20:25.750Z,89.70
2023-01-07T19:22:31.061Z,89.70
2023-01-07T19:24:35.976Z,90.00
2023-01-07T19:26:42.834Z,90.10
2023-01-07T19:28:51.285Z,90.30
2023-01-07T19:30:56.953Z,90.40
2023-01-07T19:33:02.117Z,90.60
2023-01-07T19:35:08.374Z,90.40
2023-01-07T19:37:13.424Z,90.40
2023-01-07T19:39:20.888Z,90.40
2023-01-07T19:41:26.720Z,90.30
2023-01-07T19:43:31.593Z,90.30
2023-01-07T19:45:39.437Z,90.70
2023-01-07T19:47:44.372Z,90.50
2023-01-07T19:49:49.237Z,90.20
2023-01-07T19:51:54.105Z,90.20
2023-01-07T19:53:59.010Z,90.20
2023-01-07T19:56:06.341Z,90.20
2023-01-07T19:58:13.104Z,90.40
2023-01-07T20:00:18.673Z,90.40
2023-01-07T20:02:26.360Z,90.40
2023-01-07T20:04:31.969Z,90.50
2023-01-07T20:06:41.270Z,90.30
2023-01-07T20:08:46.848Z,90.20
2023-01-07T20:10:59.345Z,90.20
2023-01-07T20:13:06.377Z,90.40
2023-01-07T20:15:13.207Z,90.50
2023-01-07T20:17:18.129Z,90.40
2023-01-07T20:19:27.227Z,90.30
2023-01-07T20:21:32.105Z,90.70
2023-01-07T20:23:38.396Z,90.70
2023-01-07T20:25:45.387Z,91.30
2023-01-07T20:27:50.629Z,91.30
2023-01-07T20:29:55.549Z,91.20
2023-01-07T20:32:00.943Z,91.20
2023-01-07T20:34:05.903Z,91.10
2023-01-07T20:36:16.252Z,91.30
2023-01-07T20:38:21.634Z,91.40
2023-01-07T20:40:26.700Z,91.30
2023-01-07T20:42:32.289Z,91.40
2023-01-07T20:44:37.745Z,91.30
2023-01-07T20:46:42.662Z,91.20
2023-01-07T20:48:47.940Z,91.30
2023-01-07T20:50:52.841Z,91.40
2023-01-07T20:53:00.629Z,91.30
2023-01-07T20:55:06.452Z,90.90
2023-01-07T20:57:11.379Z,90.70
2023-01-07T20:59:17.319Z,90.90
2023-01-07T21:01:24.421Z,91.00
2023-01-07T21:03:29.736Z,91.00
2023-01-07T21:05:35.184Z,90.70
2023-01-07T21:07:43.352Z,90.70
2023-01-07T21:09:51.027Z,90.70
2023-01-07T21:11:56.591Z,90.30
2023-01-07T21:14:01.741Z,90.20
2023-01-07T21:16:07.936Z,90.40
2023-01-07T21:18:12.933Z,90.60
2023-01-07T21:20:18.680Z,90.70
2023-01-07T21:22:24.185Z,90.60
2023-01-07T21:24:29.493Z,90.50
2023-01-07T21:26:37.437Z,90.50
2023-01-07T21:28:44.336Z,90.50
2023-01-07T21:30:50.112Z,90.60
2023-01-07T21:32:55.539Z,90.60
2023-01-07T21:35:01.338Z,90.50
2023-01-07T21:37:06.261Z,90.00
2023-01-07T21:39:15.680Z,90.00
2023-01-07T21:41:20.608Z,89.80
2023-01-07T21:43:28.191Z,89.70
2023-01-07T21:45:33.191Z,89.50
2023-01-07T21:47:38.173Z,89.60
2023-01-07T21:49:43.123Z,89.50
2023-01-07T21:51:49.313Z,89.40
2023-01-07T21:53:56.197Z,89.30
2023-01-07T21:56:01.247Z,89.40
2023-01-07T21:58:06.232Z,89.30
2023-01-07T22:00:16.808Z,89.10
2023-01-07T22:02:21.780Z,89.10
2023-01-07T22:04:27.140Z,89.40
2023-01-07T22:06:34.242Z,89.80
2023-01-07T22:08:39.889Z,90.10
2023-01-07T22:10:50.937Z,90.40
2023-01-07T22:12:56.214Z,90.60
2023-01-07T22:15:01.601Z,90.50
2023-01-07T22:17:10.474Z,90.60
2023-01-07T22:19:16.145Z,90.70
2023-01-07T22:21:22.385Z,90.80
2023-01-07T22:23:27.374Z,90.90
2023-01-07T22:25:32.608Z,90.80
2023-01-07T22:27:37.854Z,90.60
2023-01-07T22:29:44.414Z,90.50
2023-01-07T22:31:52.761Z,90.60
2023-01-07T22:34:01.023Z,90.70
2023-01-07T22:36:07.046Z,90.90
2023-01-07T22:38:14.749Z,90.90
2023-01-07T22:40:19.977Z,90.90
2023-01-07T22:42:32.688Z,90.80
2023-01-07T22:44:43.309Z,90.70
2023-01-07T22:46:51.487Z,90.60
2023-01-07T22:48:59.088Z,90.60
2023-01-07T22:51:09.087Z,90.80
2023-01-07T22:53:15.860Z,90.80
2023-01-07T22:55:21.263Z,90.90
2023-01-07T22:57:26.485Z,91.00
2023-01-07T22:59:31.407Z,91.10
2023-01-07T23:01:37.838Z,91.00
2023-01-07T23:03:43.934Z,91.00
2023-01-07T23:05:52.570Z,90.90
2023-01-07T23:07:57.486Z,91.00
2023-01-07T23:10:02.408Z,91.00
2023-01-07T23:12:11.049Z,91.00
2023-01-07T23:14:16.256Z,90.50
2023-01-07T23:16:21.262Z,90.40
2023-01-07T23:18:26.341Z,90.50
2023-01-07T23:20:31.298Z,90.10
2023-01-07T23:22:38.838Z,90.00
2023-01-07T23:24:43.758Z,89.30
2023-01-07T23:26:50.065Z,89.50
2023-01-07T23:28:55.025Z,88.60
2023-01-07T23:31:03.789Z,87.70
2023-01-07T23:33:08.803Z,87.70
2023-01-07T23:35:14.276Z,87.10
2023-01-07T23:37:19.219Z,86.60
2023-01-07T23:39:26.729Z,85.70
2023-01-07T23:41:32.889Z,86.20
2023-01-07T23:43:38.283Z,85.70
2023-01-07T23:45:43.602Z,86.10
2023-01-07T23:47:48.772Z,86.30
2023-01-07T23:49:53.760Z,85.70
2023-01-07T23:51:58.892Z,85.50
2023-01-07T23:54:04.210Z,85.20
2023-01-07T23:56:11.967Z,85.30
2023-01-07T23:58:16.900Z,84.90
